Time;durP1;ratioP1;P1;durP2;ratioP2;P2;SDS_P1;SDS_P2;PMS_P1;PMS_P2;Temp;Humidity;BMP_temperature;BMP_pressure;BME280_temperature;BME280_humidity;BME280_pressure;Samples;Min_cycle;Max_cycle;Signal;HPM_P1;HPM_P2
2024/01/26 00:00:18;;;;;;;6.00;2.33;;;4.60;99.90;;;;;;5065654;28;20480;-82
2024/01/26 00:02:47;;;;;;;8.73;2.77;;;4.60;99.90;;;;;;5056974;28;20469;-81
2024/01/26 00:05:14;;;;;;;8.60;1.93;;;4.60;99.90;;;;;;5053144;28;20446;-81
2024/01/26 00:07:41;;;;;;;5.77;1.20;;;4.60;99.90;;;;;;5055709;28;20490;-81
2024/01/26 00:10:08;;;;;;;9.53;2.63;;;4.60;99.90;;;;;;5060724;28;20564;-82
2024/01/26 00:12:36;;;;;;;9.83;2.90;;;4.60;99.90;;;;;;5056906;28;20438;-81
2024/01/26 00:15:03;;;;;;;12.73;2.73;;;4.60;99.90;;;;;;5059794;28;20452;-82
2024/01/26 00:17:29;;;;;;;12.27;2.67;;;4.70;99.90;;;;;;5057788;28;20513;-83
2024/01/26 00:19:57;;;;;;;7.23;2.27;;;4.80;99.90;;;;;;5053821;28;20533;-80
2024/01/26 00:22:24;;;;;;;8.37;1.63;;;4.70;99.90;;;;;;5061949;28;20966;-83
2024/01/26 00:24:51;;;;;;;3.40;1.67;;;4.70;99.90;;;;;;5055624;28;20463;-83
2024/01/26 00:27:18;;;;;;;9.63;1.93;;;4.80;99.90;;;;;;5059503;28;20465;-84
2024/01/26 00:29:45;;;;;;;4.97;1.77;;;4.90;99.90;;;;;;5057015;28;20446;-81
2024/01/26 00:32:12;;;;;;;10.63;2.33;;;4.80;99.90;;;;;;5058629;28;20472;-84
2024/01/26 00:34:39;;;;;;;7.80;2.43;;;4.70;99.90;;;;;;5070464;28;20952;-81
2024/01/26 00:37:07;;;;;;;8.73;2.10;;;4.70;99.90;;;;;;5056034;28;20526;-82
2024/01/26 00:39:34;;;;;;;9.90;2.37;;;4.70;99.90;;;;;;5065275;28;20441;-81
2024/01/26 00:42:01;;;;;;;8.60;2.30;;;4.70;99.90;;;;;;5065280;28;20856;-81
2024/01/26 00:44:28;;;;;;;5.37;1.80;;;4.80;99.90;;;;;;5073226;28;20463;-85
2024/01/26 00:46:55;;;;;;;9.30;3.00;;;4.80;99.90;;;;;;5067010;28;20493;-81
2024/01/26 00:49:22;;;;;;;5.30;2.17;;;4.80;99.90;;;;;;5067775;28;20839;-82
2024/01/26 00:51:49;;;;;;;9.33;1.73;;;4.80;99.90;;;;;;5066180;28;20504;-81
2024/01/26 00:54:18;;;;;;;5.57;2.10;;;4.80;99.90;;;;;;5066243;28;20473;-82
2024/01/26 00:56:45;;;;;;;12.43;2.00;;;4.70;99.90;;;;;;5054659;28;21012;-84
2024/01/26 00:59:12;;;;;;;9.33;2.90;;;4.70;99.90;;;;;;5062045;28;20459;-81
2024/01/26 01:01:39;;;;;;;6.00;1.83;;;4.70;99.90;;;;;;5060343;28;20562;-82
2024/01/26 01:04:06;;;;;;;6.80;1.87;;;4.70;99.90;;;;;;5065300;28;20505;-81
2024/01/26 01:06:33;;;;;;;7.80;2.00;;;4.70;99.90;;;;;;5066006;28;20447;-82
2024/01/26 01:08:59;;;;;;;6.47;2.80;;;4.60;99.90;;;;;;5067602;28;21150;-82
2024/01/26 01:11:27;;;;;;;10.87;2.43;;;4.60;99.90;;;;;;5067948;28;20475;-81
2024/01/26 01:13:55;;;;;;;9.10;3.00;;;4.70;99.90;;;;;;5068558;28;20961;-82
2024/01/26 01:16:22;;;;;;;5.00;2.70;;;4.70;99.90;;;;;;5061221;28;20500;-84
2024/01/26 01:18:49;;;;;;;5.07;2.40;;;4.70;99.90;;;;;;5053610;28;20445;-81
2024/01/26 01:21:16;;;;;;;7.60;2.70;;;4.70;99.90;;;;;;5059041;28;20500;-80
2024/01/26 01:23:43;;;;;;;4.83;1.63;;;4.70;99.90;;;;;;5059386;28;20464;-80
2024/01/26 01:26:10;;;;;;;7.80;2.20;;;4.80;99.90;;;;;;5068665;28;20450;-79
2024/01/26 01:28:38;;;;;;;5.80;1.97;;;4.90;99.90;;;;;;5064636;28;20612;-79
2024/01/26 01:31:05;;;;;;;13.43;1.90;;;4.90;99.90;;;;;;5066351;28;20463;-79
2024/01/26 01:33:32;;;;;;;7.33;1.60;;;4.90;99.90;;;;;;5062934;28;20576;-78
2024/01/26 01:36:00;;;;;;;3.97;1.40;;;4.90;99.90;;;;;;5064358;28;20447;-79
2024/01/26 01:38:27;;;;;;;9.13;1.93;;;4.90;99.90;;;;;;5063888;28;20502;-79
2024/01/26 01:40:54;;;;;;;16.43;2.70;;;4.90;99.90;;;;;;5067105;28;20536;-79
2024/01/26 01:43:21;;;;;;;6.30;2.10;;;5.00;99.90;;;;;;5060652;28;20819;-79
2024/01/26 01:45:49;;;;;;;8.00;3.90;;;5.00;99.90;;;;;;5063514;28;20463;-79
2024/01/26 01:48:16;;;;;;;6.40;2.00;;;5.00;99.90;;;;;;5068215;28;20461;-80
2024/01/26 01:50:44;;;;;;;8.13;1.47;;;5.00;99.90;;;;;;5064571;28;20797;-79
2024/01/26 01:53:13;;;;;;;8.47;2.30;;;5.00;99.90;;;;;;5063243;28;20547;-79
2024/01/26 01:55:41;;;;;;;10.77;2.10;;;5.00;99.90;;;;;;5061047;28;20452;-79
2024/01/26 01:58:09;;;;;;;8.43;2.13;;;5.00;99.90;;;;;;5057311;28;20514;-78
2024/01/26 02:00:37;;;;;;;5.37;1.70;;;4.90;99.90;;;;;;5066801;28;20521;-79
2024/01/26 02:03:05;;;;;;;6.70;1.83;;;4.90;99.90;;;;;;5062160;28;20491;-78
2024/01/26 02:05:33;;;;;;;4.50;2.00;;;4.90;99.90;;;;;;5062304;28;20480;-82
2024/01/26 02:08:00;;;;;;;6.37;1.93;;;4.90;99.90;;;;;;5067231;28;20939;-78
2024/01/26 02:10:27;;;;;;;8.90;3.20;;;4.90;99.90;;;;;;5067404;28;20457;-79
2024/01/26 02:12:54;;;;;;;4.17;1.77;;;4.90;99.90;;;;;;5066966;28;20937;-80
2024/01/26 02:15:21;;;;;;;8.00;1.80;;;4.90;99.90;;;;;;5057417;28;20501;-78
2024/01/26 02:17:48;;;;;;;8.43;1.47;;;5.00;99.90;;;;;;5054422;28;20446;-81
2024/01/26 02:20:17;;;;;;;3.03;1.57;;;4.90;99.90;;;;;;5064995;28;20839;-79
2024/01/26 02:22:44;;;;;;;12.33;2.33;;;5.00;99.90;;;;;;5056310;28;20495;-78
2024/01/26 02:25:12;;;;;;;7.10;1.43;;;4.90;99.90;;;;;;5060798;28;20781;-81
2024/01/26 02:27:39;;;;;;;9.53;3.07;;;5.00;99.90;;;;;;5053779;28;20478;-81
2024/01/26 02:30:07;;;;;;;6.47;1.57;;;4.90;99.90;;;;;;5066902;28;20441;-79
2024/01/26 02:32:34;;;;;;;6.30;2.20;;;4.90;99.90;;;;;;5066657;28;20473;-80
2024/01/26 02:35:01;;;;;;;10.60;1.90;;;5.00;99.90;;;;;;5053655;28;21034;-78
2024/01/26 02:37:28;;;;;;;6.10;2.00;;;5.00;99.90;;;;;;5060273;28;20464;-79
2024/01/26 02:39:55;;;;;;;15.23;2.47;;;5.00;99.90;;;;;;5064488;28;21017;-80
2024/01/26 02:42:24;;;;;;;5.80;2.20;;;5.00;99.90;;;;;;5055324;28;20549;-83
2024/01/26 02:44:51;;;;;;;5.47;1.70;;;5.00;99.90;;;;;;5060112;28;20614;-84
2024/01/26 02:47:18;;;;;;;5.00;2.47;;;5.00;99.90;;;;;;5063011;28;20451;-82
2024/01/26 02:49:45;;;;;;;5.60;2.20;;;5.00;99.90;;;;;;5064008;28;21256;-83
2024/01/26 02:52:12;;;;;;;4.40;2.03;;;5.10;99.90;;;;;;5065951;28;20449;-80
2024/01/26 02:54:38;;;;;;;11.50;2.60;;;5.00;99.90;;;;;;5056964;28;20491;-80
2024/01/26 02:57:05;;;;;;;3.67;1.60;;;5.00;99.90;;;;;;5049516;28;20447;-80
2024/01/26 02:59:34;;;;;;;9.60;2.23;;;5.00;99.90;;;;;;5066860;28;20932;-80
2024/01/26 03:02:01;;;;;;;8.43;2.60;;;4.90;99.90;;;;;;5058967;28;20925;-81
2024/01/26 03:04:28;;;;;;;5.17;2.33;;;4.80;99.90;;;;;;5055916;28;20457;-80
2024/01/26 03:06:56;;;;;;;9.63;2.23;;;4.70;99.90;;;;;;5062962;28;20504;-81
2024/01/26 03:09:23;;;;;;;3.50;1.87;;;4.70;99.90;;;;;;5057962;28;20471;-80
2024/01/26 03:11:50;;;;;;;4.73;2.20;;;4.70;99.90;;;;;;5069529;28;20470;-80
2024/01/26 03:14:18;;;;;;;8.10;4.40;;;4.60;99.90;;;;;;5054770;28;20517;-81
2024/01/26 03:16:47;;;;;;;8.23;2.87;;;4.60;99.90;;;;;;5053114;28;20454;-81
2024/01/26 03:19:14;;;;;;;8.80;2.20;;;4.60;99.90;;;;;;5056396;28;20449;-81
2024/01/26 03:21:44;;;;;;;6.63;2.93;;;4.50;99.90;;;;;;5050338;28;20518;-81
2024/01/26 03:24:11;;;;;;;4.40;2.93;;;4.40;99.90;;;;;;5055771;28;20467;-82
2024/01/26 03:26:38;;;;;;;14.00;3.37;;;4.40;99.90;;;;;;5057303;28;20491;-82
2024/01/26 03:29:05;;;;;;;16.63;4.40;;;4.40;99.90;;;;;;5060758;28;20479;-82
2024/01/26 03:31:33;;;;;;;9.20;2.77;;;4.40;99.90;;;;;;5058615;28;20444;-82
2024/01/26 03:34:01;;;;;;;13.57;3.40;;;4.40;99.90;;;;;;5057543;28;20464;-81
2024/01/26 03:36:28;;;;;;;5.70;2.10;;;4.30;99.90;;;;;;5053849;28;20436;-83
2024/01/26 03:38:55;;;;;;;10.43;3.00;;;4.30;99.90;;;;;;5077297;28;20480;-81
2024/01/26 03:41:22;;;;;;;12.77;2.90;;;4.30;99.90;;;;;;5067480;28;20520;-81
2024/01/26 03:43:51;;;;;;;7.13;2.93;;;4.30;99.90;;;;;;5063489;28;20540;-80
2024/01/26 03:46:20;;;;;;;5.23;2.23;;;4.30;99.90;;;;;;5064338;28;20470;-80
2024/01/26 03:48:46;;;;;;;9.37;3.90;;;4.20;99.90;;;;;;5066999;28;20448;-80
2024/01/26 03:51:15;;;;;;;15.73;3.37;;;4.20;99.90;;;;;;5066175;28;20581;-82
2024/01/26 03:53:42;;;;;;;5.83;2.90;;;4.30;99.90;;;;;;5064245;28;20553;-81
2024/01/26 03:56:09;;;;;;;7.33;3.07;;;4.20;99.90;;;;;;5060393;28;20487;-82
2024/01/26 03:58:36;;;;;;;10.13;3.50;;;4.30;99.90;;;;;;5064920;28;20439;-82
2024/01/26 04:01:03;;;;;;;21.37;5.07;;;4.30;99.90;;;;;;5065613;28;20487;-84
2024/01/26 04:03:30;;;;;;;17.93;5.70;;;4.30;99.90;;;;;;5054043;28;20499;-81
2024/01/26 04:05:57;;;;;;;6.50;3.20;;;4.30;99.90;;;;;;5062593;28;20444;-81
2024/01/26 04:08:25;;;;;;;5.20;2.90;;;4.30;99.90;;;;;;5065531;28;20509;-82
2024/01/26 04:10:52;;;;;;;6.63;3.43;;;4.40;99.90;;;;;;5065188;28;20461;-82
2024/01/26 04:13:19;;;;;;;4.47;3.80;;;4.40;99.90;;;;;;5066250;28;20449;-81
2024/01/26 04:15:46;;;;;;;5.70;2.93;;;4.40;99.90;;;;;;5052795;28;20550;-81
2024/01/26 04:18:14;;;;;;;6.33;3.47;;;4.50;99.90;;;;;;5066668;28;21150;-82
2024/01/26 04:20:41;;;;;;;7.60;4.50;;;4.50;99.90;;;;;;5063387;28;20436;-80
2024/01/26 04:23:08;;;;;;;8.70;4.50;;;4.60;99.90;;;;;;5061117;28;20531;-82
2024/01/26 04:25:36;;;;;;;7.47;4.30;;;4.60;99.90;;;;;;5064879;28;20510;-83
2024/01/26 04:28:03;;;;;;;8.03;4.23;;;4.60;99.90;;;;;;5064862;28;20501;-82
2024/01/26 04:30:30;;;;;;;6.40;5.30;;;4.70;99.90;;;;;;5058526;28;20518;-82
2024/01/26 04:32:57;;;;;;;6.00;4.77;;;4.80;99.90;;;;;;5062873;28;20464;-81
2024/01/26 04:35:24;;;;;;;11.93;5.10;;;4.80;99.90;;;;;;5068962;28;20516;-81
2024/01/26 04:37:51;;;;;;;7.33;4.37;;;4.80;99.90;;;;;;5074258;28;20464;-81
2024/01/26 04:40:19;;;;;;;3.40;3.10;;;4.90;99.90;;;;;;5077951;28;20986;-83
2024/01/26 04:42:47;;;;;;;4.20;3.67;;;4.90;99.90;;;;;;5080006;28;20480;-81
2024/01/26 04:45:14;;;;;;;9.10;4.20;;;4.90;99.90;;;;;;5072180;28;20458;-81
2024/01/26 04:47:41;;;;;;;8.07;4.23;;;4.90;99.90;;;;;;5067553;28;20441;-80
2024/01/26 04:50:09;;;;;;;7.40;4.47;;;4.90;99.90;;;;;;5067076;28;20448;-82
2024/01/26 04:52:36;;;;;;;5.13;4.57;;;4.90;99.90;;;;;;5058250;28;20967;-81
2024/01/26 04:55:04;;;;;;;8.17;4.73;;;4.90;99.90;;;;;;5062227;28;20842;-81
2024/01/26 04:57:31;;;;;;;5.73;5.20;;;4.90;99.90;;;;;;5067777;28;20529;-82
2024/01/26 04:59:59;;;;;;;8.93;4.87;;;4.90;99.90;;;;;;5067794;28;21052;-83
2024/01/26 05:02:26;;;;;;;7.20;5.27;;;4.90;99.90;;;;;;5064660;28;20517;-84
2024/01/26 05:04:53;;;;;;;5.00;4.50;;;5.00;99.90;;;;;;5051835;28;20501;-83
2024/01/26 05:07:20;;;;;;;5.47;4.87;;;5.00;99.90;;;;;;5061957;28;20452;-84
2024/01/26 05:09:47;;;;;;;8.70;4.30;;;5.00;99.90;;;;;;5060595;28;20951;-82
2024/01/26 05:12:13;;;;;;;6.60;4.57;;;5.00;99.90;;;;;;5053947;28;20489;-83
2024/01/26 05:14:40;;;;;;;7.03;5.20;;;5.00;99.90;;;;;;5060624;28;20455;-81
2024/01/26 05:17:09;;;;;;;9.90;8.30;;;5.00;99.90;;;;;;5050132;28;20479;-82
2024/01/26 05:19:36;;;;;;;9.83;7.93;;;5.00;99.90;;;;;;5057014;28;20481;-81
2024/01/26 05:22:03;;;;;;;9.13;7.13;;;5.00;99.90;;;;;;5056432;28;20478;-83
2024/01/26 05:24:30;;;;;;;7.80;6.10;;;5.00;99.90;;;;;;5054070;28;20541;-81
2024/01/26 05:26:57;;;;;;;8.83;6.63;;;5.00;99.90;;;;;;5057818;28;20438;-82
2024/01/26 05:29:25;;;;;;;7.20;6.50;;;5.00;99.90;;;;;;5055080;28;20474;-81
2024/01/26 05:31:52;;;;;;;5.20;4.70;;;5.10;99.90;;;;;;5053299;28;20463;-81
2024/01/26 05:34:20;;;;;;;5.60;5.03;;;5.10;99.90;;;;;;5065610;28;20571;-82
2024/01/26 05:36:47;;;;;;;16.50;11.50;;;5.10;99.90;;;;;;5063108;28;20551;-80
2024/01/26 05:39:14;;;;;;;9.63;7.00;;;5.10;99.90;;;;;;5071187;28;20461;-81
2024/01/26 05:41:42;;;;;;;11.07;7.17;;;5.10;99.90;;;;;;5067598;28;21180;-80
2024/01/26 05:44:09;;;;;;;9.37;8.30;;;5.10;99.90;;;;;;5065711;28;21244;-82
2024/01/26 05:46:36;;;;;;;15.93;10.07;;;5.10;99.90;;;;;;5062051;28;20530;-81
2024/01/26 05:49:03;;;;;;;9.40;5.93;;;5.10;99.90;;;;;;5061811;28;20461;-80
2024/01/26 05:51:31;;;;;;;7.97;5.40;;;5.00;99.90;;;;;;5065846;28;20445;-80
2024/01/26 05:53:58;;;;;;;4.53;3.80;;;5.00;99.90;;;;;;5054482;28;20461;-81
2024/01/26 05:56:25;;;;;;;3.83;3.30;;;5.10;99.90;;;;;;5064932;28;20511;-80
2024/01/26 05:58:53;;;;;;;4.33;3.93;;;5.10;99.90;;;;;;5061251;28;20467;-81
2024/01/26 06:01:20;;;;;;;9.33;3.73;;;5.10;99.90;;;;;;5063441;28;20489;-80
2024/01/26 06:03:47;;;;;;;3.13;2.60;;;5.10;99.90;;;;;;5055553;28;20478;-81
2024/01/26 06:06:15;;;;;;;2.80;2.30;;;5.20;99.90;;;;;;5061473;28;20462;-82
2024/01/26 06:08:44;;;;;;;3.93;2.77;;;5.20;99.90;;;;;;5065579;28;20471;-80
2024/01/26 06:11:11;;;;;;;3.20;2.90;;;5.20;99.90;;;;;;5066045;28;20491;-81
2024/01/26 06:13:38;;;;;;;4.60;3.20;;;5.10;99.90;;;;;;5062211;28;20507;-83
2024/01/26 06:16:05;;;;;;;3.73;3.13;;;5.10;99.90;;;;;;5076304;28;20466;-79
2024/01/26 06:18:32;;;;;;;2.87;2.63;;;5.10;99.90;;;;;;5069718;28;20456;-81
2024/01/26 06:20:58;;;;;;;4.10;3.23;;;5.00;99.90;;;;;;5062662;28;20479;-86
2024/01/26 06:23:25;;;;;;;4.17;3.17;;;5.00;99.90;;;;;;5067176;28;20481;-80
2024/01/26 06:25:54;;;;;;;5.33;4.00;;;5.00;99.90;;;;;;5053328;28;20534;-79
2024/01/26 06:28:21;;;;;;;6.27;3.73;;;5.00;99.90;;;;;;5062124;28;20482;-79
2024/01/26 06:30:48;;;;;;;4.60;4.20;;;5.00;99.90;;;;;;5064478;28;20532;-79
2024/01/26 06:33:15;;;;;;;5.50;4.47;;;5.00;99.90;;;;;;5066305;28;20444;-82
2024/01/26 06:35:42;;;;;;;5.77;4.10;;;5.10;99.90;;;;;;5067905;28;20997;-78
2024/01/26 06:38:09;;;;;;;6.07;4.57;;;5.10;99.90;;;;;;5062197;28;20527;-80
2024/01/26 06:40:37;;;;;;;5.30;4.80;;;5.10;99.90;;;;;;5066477;28;20946;-79
2024/01/26 06:43:07;;;;;;;7.60;5.13;;;5.10;99.90;;;;;;5066559;28;20564;-79
2024/01/26 06:45:34;;;;;;;4.10;3.23;;;5.10;99.90;;;;;;5052702;28;20516;-81
2024/01/26 06:48:02;;;;;;;7.50;5.57;;;5.00;99.90;;;;;;5050803;28;20453;-80
2024/01/26 06:50:29;;;;;;;4.20;3.80;;;5.00;99.90;;;;;;5060773;28;20469;-80
2024/01/26 06:52:56;;;;;;;7.40;5.37;;;5.00;99.90;;;;;;5058558;28;20530;-79
2024/01/26 06:55:23;;;;;;;7.10;4.77;;;4.90;99.90;;;;;;5048052;28;20847;-79
2024/01/26 06:57:50;;;;;;;7.53;6.73;;;5.00;99.90;;;;;;5052100;28;20929;-80
2024/01/26 07:00:19;;;;;;;8.37;7.57;;;5.00;99.90;;;;;;5058555;28;20440;-79
2024/01/26 07:02:46;;;;;;;9.27;7.73;;;5.00;99.90;;;;;;5053918;28;20576;-80
2024/01/26 07:05:13;;;;;;;10.97;8.43;;;5.00;99.90;;;;;;5052174;28;20502;-80
2024/01/26 07:07:40;;;;;;;9.60;8.53;;;5.00;99.90;;;;;;5062199;28;20508;-79
2024/01/26 07:10:08;;;;;;;9.10;7.47;;;5.00;99.90;;;;;;5063211;28;20449;-79
2024/01/26 07:12:35;;;;;;;8.13;5.60;;;5.10;99.90;;;;;;5058816;28;20447;-80
2024/01/26 07:15:02;;;;;;;6.00;5.17;;;5.10;99.90;;;;;;5061204;28;20477;-86
2024/01/26 07:17:30;;;;;;;6.33;5.10;;;5.10;99.90;;;;;;5059054;28;20485;-79
2024/01/26 07:19:57;;;;;;;6.83;5.60;;;5.10;99.90;;;;;;5053607;28;20433;-79
2024/01/26 07:22:24;;;;;;;6.33;5.37;;;5.00;99.90;;;;;;5052481;28;20654;-80
2024/01/26 07:24:51;;;;;;;7.33;6.40;;;5.10;99.90;;;;;;5056776;28;20847;-83
2024/01/26 07:27:18;;;;;;;6.03;5.27;;;5.10;99.90;;;;;;5056711;28;20470;-80
2024/01/26 07:29:47;;;;;;;5.03;4.47;;;5.10;99.90;;;;;;5053982;28;20454;-80
2024/01/26 07:32:14;;;;;;;6.43;5.30;;;5.10;99.90;;;;;;5056595;28;20547;-81
2024/01/26 07:34:43;;;;;;;6.10;5.20;;;5.10;99.90;;;;;;5055353;28;20452;-82
2024/01/26 07:37:10;;;;;;;7.20;5.33;;;5.10;99.90;;;;;;5055720;28;20446;-82
2024/01/26 07:39:36;;;;;;;10.63;7.33;;;5.20;99.90;;;;;;5057657;28;20499;-80
2024/01/26 07:42:04;;;;;;;4.37;3.97;;;5.20;99.90;;;;;;5059674;28;20451;-80
2024/01/26 07:44:31;;;;;;;6.33;5.10;;;5.20;99.90;;;;;;5053027;28;21051;-83
2024/01/26 07:46:58;;;;;;;12.00;5.43;;;5.30;99.90;;;;;;5050820;28;20464;-81
2024/01/26 07:49:25;;;;;;;4.03;3.70;;;5.30;99.90;;;;;;5076884;28;20439;-82
2024/01/26 07:51:53;;;;;;;7.80;5.40;;;5.30;99.90;;;;;;5081060;28;20483;-80
2024/01/26 07:54:20;;;;;;;6.30;5.30;;;5.40;99.90;;;;;;5059527;28;20469;-80
2024/01/26 07:56:47;;;;;;;7.00;4.70;;;5.40;99.90;;;;;;5052705;28;20510;-81
2024/01/26 07:59:14;;;;;;;8.53;5.73;;;5.40;99.90;;;;;;5056795;28;20868;-82
2024/01/26 08:01:41;;;;;;;7.33;5.80;;;5.50;99.90;;;;;;5060200;28;20472;-78
2024/01/26 08:04:08;;;;;;;7.20;5.60;;;5.60;99.90;;;;;;5050325;28;20547;-84
2024/01/26 08:06:35;;;;;;;6.00;5.30;;;5.60;99.90;;;;;;5066246;28;20530;-80
2024/01/26 08:09:04;;;;;;;9.57;6.90;;;5.60;99.90;;;;;;5063136;28;20464;-81
2024/01/26 08:11:31;;;;;;;9.20;6.43;;;5.70;99.90;;;;;;5054315;28;20459;-81
2024/01/26 08:13:58;;;;;;;7.80;5.57;;;5.70;99.90;;;;;;5054604;28;20453;-84
2024/01/26 08:16:25;;;;;;;8.70;6.10;;;5.70;99.90;;;;;;5057931;28;20497;-81
2024/01/26 08:18:53;;;;;;;8.53;6.73;;;5.70;99.90;;;;;;5056200;28;20466;-82
2024/01/26 08:21:19;;;;;;;11.00;9.43;;;5.70;99.90;;;;;;5057200;28;20924;-81
2024/01/26 08:23:47;;;;;;;15.33;12.60;;;5.70;99.90;;;;;;5052496;28;21072;-84
2024/01/26 08:26:15;;;;;;;11.60;9.70;;;5.70;99.90;;;;;;5053073;28;20451;-81
2024/01/26 08:28:42;;;;;;;165.97;85.13;;;5.70;99.90;;;;;;5065086;28;20499;-80
2024/01/26 08:31:09;;;;;;;13.33;10.73;;;5.80;99.90;;;;;;5051318;28;20780;-81
2024/01/26 08:33:36;;;;;;;16.37;12.50;;;5.80;99.90;;;;;;5048359;28;20808;-83
2024/01/26 08:36:04;;;;;;;11.23;8.47;;;5.80;99.90;;;;;;5055150;28;20507;-76
2024/01/26 08:38:31;;;;;;;12.63;7.80;;;5.80;99.90;;;;;;5060043;28;20431;-83
2024/01/26 08:40:58;;;;;;;9.77;8.53;;;5.70;99.90;;;;;;5064803;28;20455;-83
2024/01/26 08:43:26;;;;;;;11.83;9.23;;;5.70;99.90;;;;;;5054170;28;20485;-81
2024/01/26 08:45:53;;;;;;;12.00;9.23;;;5.70;99.90;;;;;;5061598;28;20466;-80
2024/01/26 08:48:20;;;;;;;11.23;8.53;;;5.70;99.90;;;;;;5061994;28;20468;-80
2024/01/26 08:50:47;;;;;;;13.13;9.37;;;5.80;99.90;;;;;;5058172;28;20446;-80
2024/01/26 08:53:14;;;;;;;12.47;9.00;;;5.80;99.90;;;;;;5053093;28;20472;-83
2024/01/26 08:55:41;;;;;;;14.20;10.43;;;5.80;99.90;;;;;;5053787;28;20451;-80
2024/01/26 08:58:08;;;;;;;13.23;9.80;;;5.70;99.90;;;;;;5053764;28;20445;-81
2024/01/26 09:00:36;;;;;;;11.90;8.87;;;5.70;99.90;;;;;;5057548;28;20500;-82
2024/01/26 09:03:04;;;;;;;14.53;10.00;;;5.60;99.90;;;;;;5053678;28;20491;-81
2024/01/26 09:05:31;;;;;;;10.80;8.73;;;5.60;99.90;;;;;;5064632;28;20527;-79
2024/01/26 09:07:58;;;;;;;13.90;10.27;;;5.60;99.90;;;;;;5065958;28;20524;-82
2024/01/26 09:10:26;;;;;;;14.97;8.90;;;5.60;99.90;;;;;;5063115;28;20521;-80
2024/01/26 09:12:53;;;;;;;9.97;8.87;;;5.60;99.90;;;;;;5061956;28;20599;-80
2024/01/26 09:15:20;;;;;;;12.77;8.90;;;5.70;99.90;;;;;;5054107;28;20452;-80
2024/01/26 09:17:48;;;;;;;13.60;10.67;;;5.70;99.90;;;;;;5052718;28;20455;-84
2024/01/26 09:20:15;;;;;;;12.00;8.07;;;5.80;99.90;;;;;;5059643;28;20463;-85
2024/01/26 09:22:42;;;;;;;12.50;9.83;;;5.90;99.90;;;;;;5060379;28;20449;-84
2024/01/26 09:25:10;;;;;;;10.87;8.73;;;6.00;99.90;;;;;;5064464;28;20462;-85
2024/01/26 09:27:37;;;;;;;16.97;10.37;;;6.10;99.90;;;;;;5070039;28;20516;-80
2024/01/26 09:30:05;;;;;;;9.30;7.93;;;6.10;99.90;;;;;;5068061;28;20445;-80
2024/01/26 09:32:33;;;;;;;9.60;8.60;;;6.20;99.90;;;;;;5064307;28;20945;-80
2024/01/26 09:35:02;;;;;;;14.17;10.70;;;6.40;99.90;;;;;;5066232;28;20495;-80
2024/01/26 09:37:29;;;;;;;9.53;8.47;;;6.40;99.90;;;;;;5067193;28;20473;-85
2024/01/26 09:39:56;;;;;;;14.40;9.77;;;6.60;99.90;;;;;;5059004;28;20448;-84
2024/01/26 09:42:24;;;;;;;8.80;7.67;;;6.70;99.90;;;;;;5059647;28;20867;-84
2024/01/26 09:44:51;;;;;;;10.03;7.77;;;6.90;99.90;;;;;;5061094;28;21130;-82
2024/01/26 09:47:18;;;;;;;10.43;7.60;;;7.10;99.90;;;;;;5067347;28;21038;-81
2024/01/26 09:49:53;;;;;;;12.73;10.23;;;7.20;99.90;;;;;;5067119;28;20493;-80
2024/01/26 09:52:22;;;;;;;10.73;7.77;;;7.30;99.90;;;;;;5062569;28;20847;-80
2024/01/26 09:54:51;;;;;;;9.93;7.93;;;7.40;99.90;;;;;;5068284;28;20537;-80
2024/01/26 09:57:20;;;;;;;12.53;8.87;;;7.40;99.90;;;;;;5063748;28;20448;-80
2024/01/26 09:59:50;;;;;;;6.93;6.23;;;7.50;99.90;;;;;;5062810;28;20526;-83
2024/01/26 10:02:17;;;;;;;10.07;8.40;;;7.50;99.90;;;;;;5068690;28;20566;-80
2024/01/26 10:04:45;;;;;;;19.13;10.97;;;7.60;99.90;;;;;;5068020;28;21048;-80
2024/01/26 10:07:11;;;;;;;12.80;10.83;;;7.70;99.90;;;;;;5063260;28;21058;-79
2024/01/26 10:09:41;;;;;;;10.30;9.10;;;7.70;99.90;;;;;;5068092;28;20825;-80
2024/01/26 10:12:10;;;;;;;11.70;10.27;;;7.80;99.90;;;;;;5063761;28;20460;-81
2024/01/26 10:14:38;;;;;;;11.00;8.73;;;7.90;99.90;;;;;;5056430;28;20490;-80
2024/01/26 10:17:05;;;;;;;10.53;9.23;;;7.90;99.90;;;;;;5054899;28;20457;-82
2024/01/26 10:19:34;;;;;;;12.40;8.07;;;7.90;99.90;;;;;;5058002;28;20945;-83
2024/01/26 10:22:01;;;;;;;8.10;7.30;;;7.80;99.90;;;;;;5060146;28;20446;-82
2024/01/26 10:24:28;;;;;;;9.20;7.80;;;7.70;99.90;;;;;;5051102;28;20512;-81
2024/01/26 10:26:57;;;;;;;12.77;11.53;;;7.50;99.90;;;;;;5054971;28;20475;-79
2024/01/26 10:29:24;;;;;;;8.40;7.23;;;7.40;99.90;;;;;;5056680;28;21079;-79
2024/01/26 10:31:52;;;;;;;8.27;6.87;;;7.30;99.90;;;;;;5062009;28;20444;-80
2024/01/26 10:34:19;;;;;;;9.67;8.67;;;7.30;99.90;;;;;;5066793;28;20501;-79
2024/01/26 10:36:48;;;;;;;11.87;8.53;;;7.30;99.90;;;;;;5067520;28;20460;-78
2024/01/26 10:39:22;;;;;;;12.20;10.07;;;7.40;99.90;;;;;;5067335;28;20454;-79
2024/01/26 10:41:50;;;;;;;11.10;8.43;;;7.50;99.90;;;;;;5066231;28;20457;-80
2024/01/26 10:44:20;;;;;;;8.87;7.77;;;7.70;99.90;;;;;;5069349;28;20567;-80
2024/01/26 10:46:47;;;;;;;9.13;8.20;;;7.80;99.90;;;;;;5063890;28;21137;-83
2024/01/26 10:49:14;;;;;;;9.00;7.80;;;7.80;99.90;;;;;;5048083;28;20513;-80
2024/01/26 10:51:42;;;;;;;11.20;7.23;;;7.70;99.90;;;;;;5064836;28;20443;-79
2024/01/26 10:54:11;;;;;;;6.83;6.20;;;7.70;99.90;;;;;;5051478;28;20547;-80
2024/01/26 10:56:39;;;;;;;8.00;7.10;;;7.80;99.90;;;;;;5053461;28;20442;-81
2024/01/26 10:59:07;;;;;;;8.07;7.27;;;7.80;99.90;;;;;;5059326;28;20461;-82
2024/01/26 11:01:38;;;;;;;8.60;7.13;;;8.00;99.90;;;;;;5063054;28;20436;-79
2024/01/26 11:04:08;;;;;;;6.47;5.87;;;8.10;99.90;;;;;;5063102;28;21034;-79
2024/01/26 11:06:35;;;;;;;8.13;6.57;;;8.20;99.90;;;;;;5057908;28;20572;-82
2024/01/26 11:09:05;;;;;;;6.33;5.67;;;8.30;99.90;;;;;;5060267;28;20456;-79
2024/01/26 11:11:33;;;;;;;7.10;5.47;;;8.30;99.90;;;;;;5064347;28;20518;-79
2024/01/26 11:14:02;;;;;;;6.03;5.47;;;8.30;99.90;;;;;;5055081;28;20520;-78
2024/01/26 11:16:32;;;;;;;7.50;6.80;;;8.30;99.90;;;;;;5056965;28;21054;-80
2024/01/26 11:19:01;;;;;;;6.13;5.53;;;8.40;99.90;;;;;;5064828;28;20472;-79
2024/01/26 11:21:38;;;;;;;4.37;3.97;;;8.30;99.90;;;;;;5066446;28;20484;-80
2024/01/26 11:24:14;;;;;;;7.40;5.03;;;8.30;99.90;;;;;;5050664;28;20486;-82
2024/01/26 11:26:41;;;;;;;5.93;5.17;;;8.30;99.90;;;;;;5053837;28;20927;-79
2024/01/26 11:29:13;;;;;;;5.87;5.27;;;8.30;99.90;;;;;;5057352;28;20450;-79
2024/01/26 11:31:42;;;;;;;5.17;4.67;;;8.30;99.90;;;;;;5051665;28;20924;-79
2024/01/26 11:34:19;;;;;;;6.90;4.90;;;8.20;99.90;;;;;;5051795;28;20529;-79
2024/01/26 11:36:46;;;;;;;8.40;7.07;;;8.20;99.90;;;;;;5054369;28;20514;-79
2024/01/26 11:39:15;;;;;;;6.10;5.50;;;8.10;99.90;;;;;;5056445;28;21059;-79
2024/01/26 11:41:45;;;;;;;5.93;4.83;;;8.10;99.90;;;;;;5059899;28;20593;-79
2024/01/26 11:44:20;;;;;;;8.40;7.43;;;8.00;99.90;;;;;;5063570;28;21194;-80
2024/01/26 11:46:48;;;;;;;5.77;5.07;;;8.00;99.90;;;;;;5055525;28;20550;-80
2024/01/26 11:49:15;;;;;;;6.97;6.27;;;8.00;99.90;;;;;;5050849;28;20452;-79
2024/01/26 11:51:44;;;;;;;6.00;5.40;;;8.00;99.90;;;;;;5058847;28;20450;-81
2024/01/26 11:54:11;;;;;;;4.87;4.37;;;8.10;99.90;;;;;;5060375;28;20460;-79
2024/01/26 11:56:38;;;;;;;4.13;3.67;;;8.30;99.90;;;;;;5056407;28;20433;-79
2024/01/26 11:59:07;;;;;;;4.40;3.63;;;8.60;99.90;;;;;;5059537;28;20445;-79
2024/01/26 12:01:34;;;;;;;5.10;4.20;;;8.80;99.90;;;;;;5062035;28;20440;-80
2024/01/26 12:04:01;;;;;;;3.80;3.50;;;8.80;99.90;;;;;;5059802;28;20569;-79
2024/01/26 12:06:28;;;;;;;4.70;3.87;;;9.00;99.90;;;;;;5057454;28;20475;-81
2024/01/26 12:08:56;;;;;;;4.03;3.43;;;9.10;99.90;;;;;;5055528;28;20471;-81
2024/01/26 12:11:24;;;;;;;3.20;2.70;;;9.20;99.90;;;;;;5058867;28;20459;-80
2024/01/26 12:13:51;;;;;;;4.30;4.00;;;9.20;99.90;;;;;;5054567;28;22070;-81
2024/01/26 12:16:23;;;;;;;3.67;3.30;;;9.30;99.90;;;;;;5059004;28;20513;-78
2024/01/26 12:18:50;;;;;;;3.90;2.90;;;9.40;99.90;;;;;;5056694;28;20463;-82
2024/01/26 12:21:17;;;;;;;4.47;2.83;;;9.50;99.90;;;;;;5049240;28;20465;-83
2024/01/26 12:23:48;;;;;;;4.60;4.20;;;9.60;99.90;;;;;;5058160;28;20502;-79
2024/01/26 12:26:17;;;;;;;3.70;3.40;;;9.70;99.90;;;;;;5058413;28;20497;-79
2024/01/26 12:28:44;;;;;;;3.47;2.43;;;9.70;99.90;;;;;;5063691;28;20574;-80
2024/01/26 12:31:11;;;;;;;2.23;2.03;;;9.90;99.90;;;;;;5052825;28;20432;-79
2024/01/26 12:33:38;;;;;;;2.00;1.47;;;9.80;99.90;;;;;;5060388;28;20436;-79
2024/01/26 12:36:09;;;;;;;1.70;1.60;;;9.80;99.90;;;;;;5066833;28;20562;-79
2024/01/26 12:38:36;;;;;;;3.23;1.57;;;9.90;99.90;;;;;;5056959;28;20687;-80
2024/01/26 12:41:03;;;;;;;2.10;1.50;;;10.00;99.90;;;;;;5063159;28;20457;-79
2024/01/26 12:43:32;;;;;;;1.70;1.60;;;10.00;99.90;;;;;;5066971;28;20448;-80
2024/01/26 12:45:59;;;;;;;1.40;0.90;;;10.00;99.90;;;;;;5066507;28;20506;-80
2024/01/26 12:48:26;;;;;;;3.03;1.03;;;9.80;99.90;;;;;;5067026;28;20456;-82
2024/01/26 12:50:53;;;;;;;3.40;1.30;;;9.70;99.90;;;;;;5065906;28;20444;-79
2024/01/26 12:53:20;;;;;;;2.90;1.53;;;9.60;99.90;;;;;;5065426;28;20529;-80